createdAt,value
2023-03-17T00:01:38.385Z,73.07
2023-03-17T00:04:05.949Z,76.40
2023-03-17T00:06:33.804Z,69.40
2023-03-17T00:09:01.309Z,73.23
2023-03-17T00:11:28.528Z,75.43
2023-03-17T00:13:55.624Z,72.27
2023-03-17T00:16:23.904Z,71.17
2023-03-17T00:18:51.120Z,75.53
2023-03-17T00:21:19.699Z,77.60
2023-03-17T00:23:48.068Z,77.00
2023-03-17T00:26:15.326Z,81.37
2023-03-17T00:28:42.994Z,73.43
2023-03-17T00:31:16.856Z,69.73
2023-03-17T00:33:44.308Z,68.23
2023-03-17T00:36:11.812Z,80.67
2023-03-17T00:38:39.699Z,91.03
2023-03-17T00:41:06.815Z,78.27
2023-03-17T00:43:33.940Z,78.97
2023-03-17T00:46:01.443Z,74.83
2023-03-17T00:48:29.895Z,61.63
2023-03-17T00:50:56.990Z,63.43
2023-03-17T00:53:24.126Z,63.13
2023-03-17T00:55:51.239Z,64.57
2023-03-17T00:58:19.369Z,55.77
2023-03-17T01:00:47.455Z,56.53
2023-03-17T01:03:14.642Z,52.63
2023-03-17T01:05:42.573Z,50.40
2023-03-17T01:08:10.396Z,60.77
2023-03-17T01:10:37.572Z,67.40
2023-03-17T01:13:05.331Z,81.97
2023-03-17T01:15:32.531Z,57.57
2023-03-17T01:18:00.130Z,59.93
2023-03-17T01:20:28.737Z,57.27
2023-03-17T01:22:56.050Z,64.67
2023-03-17T01:25:23.276Z,63.47
2023-03-17T01:27:50.421Z,60.77
2023-03-17T01:30:17.736Z,72.27
2023-03-17T01:32:45.326Z,74.60
2023-03-17T01:35:12.736Z,64.73
2023-03-17T01:37:40.115Z,68.87
2023-03-17T01:40:09.637Z,73.23
2023-03-17T01:42:36.909Z,77.80
2023-03-17T01:45:05.692Z,77.57
2023-03-17T01:47:32.825Z,77.23
2023-03-17T01:50:00.646Z,76.87
2023-03-17T01:52:28.840Z,67.17
2023-03-17T01:55:01.275Z,63.70
2023-03-17T01:57:30.170Z,71.60
2023-03-17T01:59:58.790Z,61.00
2023-03-17T02:02:30.875Z,61.17
2023-03-17T02:04:58.159Z,56.27
2023-03-17T02:07:26.573Z,44.23
2023-03-17T02:09:54.104Z,55.13
2023-03-17T02:12:22.359Z,48.70
2023-03-17T02:14:49.498Z,53.33
2023-03-17T02:17:16.635Z,54.87
2023-03-17T02:19:43.822Z,47.50
2023-03-17T02:22:11.121Z,55.77
2023-03-17T02:24:38.849Z,61.60
2023-03-17T02:27:09.187Z,51.67
2023-03-17T02:29:37.797Z,52.30
2023-03-17T02:32:05.805Z,52.77
2023-03-17T02:34:33.354Z,54.70
2023-03-17T02:37:00.677Z,54.80
2023-03-17T02:39:27.845Z,55.50
2023-03-17T02:41:54.954Z,60.90
2023-03-17T02:44:22.058Z,50.30
2023-03-17T02:46:49.215Z,46.07
2023-03-17T02:49:16.369Z,52.57
2023-03-17T02:51:43.518Z,53.50
2023-03-17T02:54:10.858Z,52.87
2023-03-17T02:56:38.298Z,49.90
2023-03-17T02:59:05.428Z,54.93
2023-03-17T03:01:32.820Z,51.73
2023-03-17T03:04:00.020Z,50.33
2023-03-17T03:06:27.188Z,49.87
2023-03-17T03:08:54.402Z,49.20
2023-03-17T03:11:21.567Z,61.50
2023-03-17T03:13:48.714Z,69.30
2023-03-17T03:16:16.183Z,61.53
2023-03-17T03:18:43.428Z,68.77
2023-03-17T03:21:10.655Z,48.97
2023-03-17T03:23:37.886Z,53.27
2023-03-17T03:26:05.068Z,47.07
2023-03-17T03:28:32.188Z,47.67
2023-03-17T03:30:59.370Z,49.43
2023-03-17T03:33:26.499Z,66.67
2023-03-17T03:35:53.747Z,60.40
2023-03-17T03:38:20.937Z,66.57
2023-03-17T03:40:48.052Z,67.67
2023-03-17T03:43:22.769Z,63.73
2023-03-17T03:45:50.763Z,65.10
2023-03-17T03:48:17.911Z,70.27
2023-03-17T03:50:45.389Z,67.77
2023-03-17T03:53:12.527Z,72.30
2023-03-17T03:55:39.673Z,70.37
2023-03-17T03:58:06.875Z,65.90
2023-03-17T04:00:34.313Z,66.13
2023-03-17T04:03:01.620Z,72.17
2023-03-17T04:05:28.799Z,69.10
2023-03-17T04:07:56.106Z,76.33
2023-03-17T04:10:23.306Z,89.50
2023-03-17T04:12:50.709Z,89.03
2023-03-17T04:15:18.212Z,84.67
2023-03-17T04:17:45.366Z,79.73
2023-03-17T04:20:13.166Z,76.00
2023-03-17T04:22:41.749Z,71.37
2023-03-17T04:25:09.329Z,82.90
2023-03-17T04:27:36.576Z,80.43
2023-03-17T04:30:04.085Z,57.93
2023-03-17T04:32:31.461Z,61.47
2023-03-17T04:34:58.684Z,44.77
2023-03-17T04:37:25.884Z,61.43
2023-03-17T04:39:53.210Z,54.80
2023-03-17T04:42:20.777Z,66.83
2023-03-17T04:44:47.924Z,79.97
2023-03-17T04:47:15.354Z,70.73
2023-03-17T04:49:42.462Z,73.50
2023-03-17T04:52:09.693Z,65.47
2023-03-17T04:54:37.127Z,80.20
2023-03-17T04:57:04.308Z,87.10
2023-03-17T04:59:31.429Z,93.30
2023-03-17T05:01:58.594Z,81.20
2023-03-17T05:04:31.632Z,84.27
2023-03-17T05:06:59.530Z,92.80
2023-03-17T05:09:28.514Z,92.83
2023-03-17T05:11:56.022Z,83.03
2023-03-17T05:14:23.193Z,91.20
2023-03-17T05:16:50.651Z,97.83
2023-03-17T05:19:18.417Z,100.03
2023-03-17T05:21:45.558Z,98.97
2023-03-17T05:24:12.676Z,96.57
2023-03-17T05:26:40.707Z,93.93
2023-03-17T05:29:09.037Z,83.73
2023-03-17T05:31:36.426Z,89.27
2023-03-17T05:34:04.116Z,90.93
2023-03-17T05:36:32.073Z,87.90
2023-03-17T05:38:59.193Z,86.50
2023-03-17T05:41:26.500Z,91.80
2023-03-17T05:43:53.669Z,84.60
2023-03-17T05:46:20.873Z,85.97
2023-03-17T05:48:48.812Z,83.80
2023-03-17T05:51:16.041Z,91.47
2023-03-17T05:53:43.501Z,85.23
2023-03-17T05:56:10.613Z,101.47
2023-03-17T05:58:37.750Z,93.90
2023-03-17T06:01:05.276Z,113.17
2023-03-17T06:03:32.457Z,108.33
2023-03-17T06:05:59.630Z,109.87
2023-03-17T06:08:26.738Z,121.10
2023-03-17T06:10:53.880Z,113.67
2023-03-17T06:13:21.229Z,102.97
2023-03-17T06:15:48.393Z,108.77
2023-03-17T06:18:15.709Z,102.87
2023-03-17T06:20:42.936Z,92.83
2023-03-17T06:23:10.356Z,85.77
2023-03-17T06:25:37.502Z,77.97
2023-03-17T06:28:05.587Z,86.93
2023-03-17T06:30:33.726Z,99.40
2023-03-17T06:33:01.333Z,104.10
2023-03-17T06:35:28.771Z,68.30
2023-03-17T06:37:56.131Z,38.20
2023-03-17T06:40:23.589Z,39.63
2023-03-17T06:42:51.084Z,66.17
2023-03-17T06:45:18.459Z,48.33
2023-03-17T06:47:45.587Z,40.10
2023-03-17T06:50:12.858Z,36.67
2023-03-17T06:52:40.078Z,30.17
2023-03-17T06:55:07.330Z,36.63
2023-03-17T06:57:34.514Z,44.07
2023-03-17T07:00:01.666Z,54.33
2023-03-17T07:02:28.789Z,46.97
2023-03-17T07:04:58.231Z,27.57
2023-03-17T07:07:25.458Z,20.93
2023-03-17T07:09:52.802Z,16.83
2023-03-17T07:12:20.163Z,17.83
2023-03-17T07:14:47.798Z,57.90
2023-03-17T07:17:14.991Z,18.27
2023-03-17T07:19:42.458Z,15.40
2023-03-17T07:22:10.987Z,16.03
2023-03-17T07:24:38.102Z,23.67
2023-03-17T07:27:05.285Z,27.60
2023-03-17T07:29:33.927Z,24.43
2023-03-17T07:32:01.387Z,24.43
2023-03-17T07:34:28.919Z,28.50
2023-03-17T07:36:56.032Z,25.90
2023-03-17T07:39:23.174Z,30.80
2023-03-17T07:41:55.155Z,29.43
2023-03-17T07:44:23.081Z,30.90
2023-03-17T07:46:50.564Z,30.30
2023-03-17T07:49:20.985Z,22.70
2023-03-17T07:51:52.263Z,33.10
2023-03-17T07:54:19.516Z,35.67
2023-03-17T07:56:46.709Z,34.47
2023-03-17T07:59:13.902Z,27.40
2023-03-17T08:01:41.099Z,32.87
2023-03-17T08:04:10.716Z,35.93
2023-03-17T08:06:38.575Z,23.37
2023-03-17T08:09:06.093Z,22.17
2023-03-17T08:11:33.236Z,21.23
2023-03-17T08:14:01.571Z,21.70
2023-03-17T08:16:29.206Z,26.07
2023-03-17T08:18:57.761Z,29.43
2023-03-17T08:21:28.024Z,23.50
2023-03-17T08:23:55.365Z,24.33
2023-03-17T08:26:23.183Z,22.00
2023-03-17T08:28:50.377Z,22.53
2023-03-17T08:31:18.721Z,17.77
2023-03-17T08:33:49.574Z,19.70
2023-03-17T08:36:17.460Z,14.83
2023-03-17T08:38:44.905Z,17.10
2023-03-17T08:41:13.235Z,21.13
2023-03-17T08:43:40.654Z,13.30
2023-03-17T08:46:08.799Z,15.75
2023-03-17T08:48:36.469Z,15.73
2023-03-17T08:51:03.792Z,11.35
2023-03-17T08:53:31.127Z,10.77
2023-03-17T08:55:58.289Z,10.95
2023-03-17T08:58:26.231Z,11.35
2023-03-17T09:00:53.927Z,12.35
2023-03-17T09:03:21.687Z,7.75
2023-03-17T09:05:49.918Z,8.02
2023-03-17T09:08:17.440Z,34.38
2023-03-17T09:10:44.789Z,8.63
2023-03-17T09:13:12.015Z,5.65
2023-03-17T09:15:39.219Z,6.43
2023-03-17T09:18:06.586Z,8.75
2023-03-17T09:20:33.973Z,7.38
2023-03-17T09:23:01.450Z,7.30
2023-03-17T09:25:28.596Z,6.28
2023-03-17T09:27:55.852Z,7.35
2023-03-17T09:30:23.037Z,7.65
2023-03-17T09:32:50.449Z,3.70
2023-03-17T09:35:17.859Z,5.07
2023-03-17T09:37:45.111Z,7.50
2023-03-17T09:40:13.756Z,6.40
2023-03-17T09:42:49.655Z,9.07
2023-03-17T09:45:19.929Z,9.57
2023-03-17T09:47:50.853Z,9.40
2023-03-17T09:50:19.153Z,7.20
2023-03-17T09:52:46.296Z,7.45
2023-03-17T09:55:21.699Z,8.02
2023-03-17T09:57:48.809Z,15.52
2023-03-17T10:00:18.036Z,7.30
2023-03-17T10:02:45.498Z,13.40
2023-03-17T10:05:20.539Z,8.13
2023-03-17T10:08:02.853Z,10.25
2023-03-17T10:10:50.093Z,10.05
2023-03-17T10:13:23.125Z,9.07
2023-03-17T10:15:51.669Z,10.10
2023-03-17T10:18:18.763Z,10.30
2023-03-17T10:20:53.127Z,17.45
2023-03-17T10:23:21.438Z,7.95
2023-03-17T10:25:49.364Z,32.70
2023-03-17T10:28:29.877Z,8.13
2023-03-17T10:31:11.552Z,8.65
2023-03-17T10:33:38.709Z,15.40
2023-03-17T10:36:09.768Z,25.15
2023-03-17T10:38:37.035Z,8.07
2023-03-17T10:41:08.315Z,7.00
2023-03-17T10:43:36.317Z,4.55
2023-03-17T10:46:04.339Z,12.00
2023-03-17T10:48:32.174Z,14.18
2023-03-17T10:50:59.510Z,16.30
2023-03-17T10:53:30.401Z,8.15
2023-03-17T10:56:02.468Z,5.82
2023-03-17T10:58:29.561Z,6.07
2023-03-17T11:00:58.149Z,6.10
2023-03-17T11:03:29.253Z,4.95
2023-03-17T11:06:04.022Z,5.22
2023-03-17T11:08:31.863Z,9.02
2023-03-17T11:10:58.999Z,5.55
2023-03-17T11:13:30.113Z,6.10
2023-03-17T11:16:17.558Z,5.65
2023-03-17T11:18:44.685Z,7.60
2023-03-17T11:21:12.306Z,4.25
2023-03-17T11:23:56.319Z,6.00
2023-03-17T11:26:42.178Z,4.88
2023-03-17T11:29:09.792Z,8.90
2023-03-17T11:31:42.473Z,6.07
2023-03-17T11:34:10.199Z,6.50
2023-03-17T11:36:57.783Z,9.65
2023-03-17T11:39:48.719Z,9.35
2023-03-17T11:42:18.044Z,10.20
2023-03-17T11:44:51.721Z,4.80
2023-03-17T11:47:21.986Z,10.50
2023-03-17T11:49:51.433Z,4.32
2023-03-17T11:52:22.518Z,7.05
2023-03-17T11:54:59.689Z,5.13
2023-03-17T11:57:27.256Z,10.77
2023-03-17T11:59:59.896Z,4.07
2023-03-17T12:02:39.144Z,4.60
2023-03-17T12:05:20.192Z,5.30
2023-03-17T12:07:54.804Z,3.30
2023-03-17T12:10:23.683Z,4.43
2023-03-17T12:12:53.123Z,3.70
2023-03-17T12:15:24.058Z,5.45
2023-03-17T12:17:53.038Z,4.25
2023-03-17T12:20:42.300Z,5.10
2023-03-17T12:23:14.236Z,4.68
2023-03-17T12:25:50.401Z,24.67
2023-03-17T12:28:27.187Z,5.75
2023-03-17T12:30:55.512Z,6.38
2023-03-17T12:33:28.576Z,23.13
2023-03-17T12:35:55.743Z,14.40
2023-03-17T12:38:31.441Z,5.97
2023-03-17T12:41:17.457Z,9.73
2023-03-17T12:43:49.172Z,3.90
2023-03-17T12:46:16.306Z,4.43
2023-03-17T12:48:47.259Z,3.63
2023-03-17T12:51:17.650Z,10.23
2023-03-17T12:53:48.838Z,5.68
2023-03-17T12:56:20.183Z,16.98
2023-03-17T12:58:50.937Z,3.50
2023-03-17T13:01:37.222Z,6.90
2023-03-17T13:04:04.450Z,5.00
2023-03-17T13:06:36.183Z,2.95
2023-03-17T13:09:22.670Z,3.88
2023-03-17T13:11:49.795Z,5.10
2023-03-17T13:14:36.131Z,9.15
2023-03-17T13:17:28.450Z,5.88
2023-03-17T13:19:55.595Z,2.47
2023-03-17T13:22:22.696Z,3.33
2023-03-17T13:24:53.240Z,5.97
2023-03-17T13:27:32.765Z,2.50
2023-03-17T13:30:00.397Z,5.50
2023-03-17T13:32:27.585Z,5.68
2023-03-17T13:34:58.487Z,3.67
2023-03-17T13:37:25.621Z,4.72
2023-03-17T13:40:10.693Z,4.93
2023-03-17T13:42:43.742Z,3.05
2023-03-17T13:45:16.668Z,9.00
2023-03-17T13:47:43.785Z,3.95
2023-03-17T13:50:17.026Z,9.05
2023-03-17T13:52:48.095Z,3.58
2023-03-17T13:55:18.461Z,4.45
2023-03-17T13:57:57.045Z,4.50
2023-03-17T14:00:27.401Z,4.90
2023-03-17T14:02:59.028Z,3.60
2023-03-17T14:05:27.206Z,4.68
2023-03-17T14:07:54.374Z,5.93
2023-03-17T14:10:22.315Z,4.18
2023-03-17T14:13:03.993Z,3.05
2023-03-17T14:15:48.216Z,2.85
2023-03-17T14:18:22.430Z,2.90
2023-03-17T14:20:53.704Z,2.63
2023-03-17T14:23:21.517Z,3.65
2023-03-17T14:25:50.482Z,9.30
2023-03-17T14:28:18.166Z,9.57
2023-03-17T14:30:55.470Z,23.60
2023-03-17T14:33:33.636Z,24.48
2023-03-17T14:36:01.550Z,8.07
2023-03-17T14:38:29.842Z,6.80
2023-03-17T14:41:07.268Z,8.10
2023-03-17T14:43:34.984Z,8.38
2023-03-17T14:46:06.037Z,4.85
2023-03-17T14:48:33.935Z,5.25
2023-03-17T14:51:05.604Z,7.07
2023-03-17T14:53:36.231Z,6.10
2023-03-17T14:56:04.403Z,3.80
2023-03-17T14:58:32.515Z,6.35
2023-03-17T15:01:02.742Z,4.63
2023-03-17T15:03:31.602Z,5.72
2023-03-17T15:06:17.989Z,4.38
2023-03-17T15:08:49.014Z,6.75
2023-03-17T15:11:17.476Z,10.77
2023-03-17T15:13:44.621Z,6.32
2023-03-17T15:16:32.139Z,5.68
2023-03-17T15:19:29.022Z,5.28
2023-03-17T15:22:00.427Z,4.43
2023-03-17T15:24:47.968Z,4.20
2023-03-17T15:27:15.929Z,5.88
2023-03-17T15:29:43.052Z,4.20
2023-03-17T15:32:11.730Z,3.78
2023-03-17T15:34:38.906Z,4.03
2023-03-17T15:37:07.321Z,3.75
2023-03-17T15:39:34.470Z,3.00
2023-03-17T15:42:01.574Z,5.22
2023-03-17T15:44:28.701Z,4.13
2023-03-17T15:46:55.855Z,7.38
2023-03-17T15:49:26.844Z,4.80
2023-03-17T15:51:54.148Z,12.15
2023-03-17T15:54:21.405Z,5.97
2023-03-17T15:56:48.602Z,3.38
2023-03-17T15:59:15.724Z,4.75
2023-03-17T16:01:42.943Z,4.60
2023-03-17T16:04:10.717Z,5.22
2023-03-17T16:06:37.884Z,5.55
2023-03-17T16:09:07.390Z,3.78
2023-03-17T16:11:34.488Z,6.18
2023-03-17T16:14:01.622Z,11.70
2023-03-17T16:16:36.452Z,18.23
2023-03-17T16:19:04.724Z,18.45
2023-03-17T16:21:32.316Z,19.50
2023-03-17T16:23:59.540Z,37.47
2023-03-17T16:26:26.803Z,30.10
2023-03-17T16:28:54.023Z,35.95
2023-03-17T16:31:29.336Z,36.55
2023-03-17T16:33:56.705Z,47.35
2023-03-17T16:36:24.053Z,54.92
2023-03-17T16:38:51.281Z,49.20
2023-03-17T16:41:19.192Z,54.03
2023-03-17T16:43:46.848Z,57.85
2023-03-17T16:46:14.075Z,58.22
2023-03-17T16:48:41.224Z,63.90
2023-03-17T16:51:08.567Z,73.97
2023-03-17T16:53:36.195Z,75.05
2023-03-17T16:56:03.367Z,78.53
2023-03-17T16:58:31.532Z,85.15
2023-03-17T17:00:59.672Z,97.53
2023-03-17T17:03:26.793Z,97.50
2023-03-17T17:05:55.255Z,139.82
2023-03-17T17:08:22.575Z,153.07
2023-03-17T17:10:52.317Z,135.02
2023-03-17T17:13:19.497Z,132.65
2023-03-17T17:15:46.696Z,152.05
2023-03-17T17:18:14.829Z,153.77
2023-03-17T17:20:42.397Z,154.77
2023-03-17T17:23:13.279Z,137.55
2023-03-17T17:25:41.269Z,133.77
2023-03-17T17:28:08.692Z,136.65
2023-03-17T17:30:35.938Z,179.20
2023-03-17T17:33:03.322Z,161.00
2023-03-17T17:35:32.806Z,114.70
2023-03-17T17:38:00.685Z,114.57
2023-03-17T17:40:28.763Z,89.73
2023-03-17T17:42:56.123Z,76.83
2023-03-17T17:45:23.295Z,88.50
2023-03-17T17:47:50.963Z,83.03
2023-03-17T17:50:27.551Z,120.63
2023-03-17T17:52:55.040Z,186.07
2023-03-17T17:55:22.175Z,205.53
2023-03-17T17:57:51.949Z,209.50
2023-03-17T18:00:19.720Z,171.40
2023-03-17T18:02:46.838Z,135.60
2023-03-17T18:05:14.003Z,145.60
2023-03-17T18:07:41.144Z,133.00
2023-03-17T18:10:08.557Z,139.30
2023-03-17T18:12:35.757Z,139.50
2023-03-17T18:15:02.928Z,147.40
2023-03-17T18:17:32.381Z,167.67
2023-03-17T18:19:59.727Z,220.47
2023-03-17T18:22:27.101Z,205.77
2023-03-17T18:24:54.215Z,169.77
2023-03-17T18:27:21.348Z,235.40
2023-03-17T18:29:48.486Z,193.97
2023-03-17T18:32:15.871Z,126.03
2023-03-17T18:34:46.070Z,96.03
2023-03-17T18:37:14.868Z,93.70
2023-03-17T18:39:42.561Z,82.67
2023-03-17T18:42:09.817Z,73.37
2023-03-17T18:44:37.003Z,73.57
2023-03-17T18:47:04.174Z,126.17
2023-03-17T18:49:31.338Z,140.57
2023-03-17T18:51:59.596Z,171.93
2023-03-17T18:54:27.680Z,160.23
2023-03-17T18:56:55.146Z,138.23
2023-03-17T18:59:22.242Z,98.77
2023-03-17T19:01:49.508Z,81.73
2023-03-17T19:04:16.759Z,74.90
2023-03-17T19:06:44.431Z,96.53
2023-03-17T19:09:11.652Z,89.53
2023-03-17T19:11:39.608Z,95.20
2023-03-17T19:14:07.208Z,149.40
2023-03-17T19:16:34.535Z,225.90
2023-03-17T19:19:01.764Z,147.73
2023-03-17T19:21:29.008Z,78.40
2023-03-17T19:23:58.194Z,67.43
2023-03-17T19:26:25.483Z,94.47
2023-03-17T19:28:52.643Z,117.23
2023-03-17T19:31:19.790Z,147.30
2023-03-17T19:33:46.955Z,99.80
2023-03-17T19:36:14.211Z,70.93
2023-03-17T19:38:42.567Z,68.57
2023-03-17T19:41:10.446Z,137.00
2023-03-17T19:43:41.700Z,136.07
2023-03-17T19:46:09.676Z,143.97
2023-03-17T19:48:37.425Z,171.10
2023-03-17T19:51:04.763Z,169.83
2023-03-17T19:53:31.947Z,148.20
2023-03-17T19:55:59.065Z,197.40
2023-03-17T19:58:26.960Z,194.20
2023-03-17T20:00:54.160Z,149.10
2023-03-17T20:03:22.378Z,160.10
2023-03-17T20:05:52.138Z,158.93
2023-03-17T20:08:19.453Z,130.60
2023-03-17T20:10:46.902Z,123.07
2023-03-17T20:13:14.333Z,117.57
2023-03-17T20:15:41.583Z,146.17
2023-03-17T20:18:08.794Z,141.00
2023-03-17T20:20:36.287Z,129.20
2023-03-17T20:23:03.856Z,151.27
2023-03-17T20:25:31.050Z,132.13
2023-03-17T20:28:00.382Z,137.10
2023-03-17T20:30:27.873Z,156.30
2023-03-17T20:32:55.338Z,148.57
2023-03-17T20:35:22.508Z,110.60
2023-03-17T20:37:50.985Z,131.33
2023-03-17T20:40:18.520Z,143.67
2023-03-17T20:42:45.825Z,149.50
2023-03-17T20:45:13.381Z,172.53
2023-03-17T20:47:40.915Z,191.37
2023-03-17T20:50:09.020Z,202.60
2023-03-17T20:52:37.113Z,182.53
2023-03-17T20:55:06.112Z,151.67
2023-03-17T20:57:35.443Z,138.43
2023-03-17T21:00:03.036Z,144.63
2023-03-17T21:02:30.481Z,147.90
2023-03-17T21:04:57.609Z,129.53
2023-03-17T21:07:25.396Z,119.10
2023-03-17T21:09:56.383Z,140.53
2023-03-17T21:12:23.664Z,155.03
2023-03-17T21:14:53.403Z,147.40
2023-03-17T21:17:20.743Z,134.30
2023-03-17T21:19:47.832Z,134.23
2023-03-17T21:22:15.049Z,142.20
2023-03-17T21:24:42.145Z,127.47
2023-03-17T21:27:12.157Z,157.93
2023-03-17T21:29:39.814Z,148.70
2023-03-17T21:32:08.394Z,147.60
2023-03-17T21:34:35.554Z,152.00
2023-03-17T21:37:02.744Z,151.23
2023-03-17T21:39:29.998Z,121.03
2023-03-17T21:41:57.568Z,137.47
2023-03-17T21:44:24.768Z,143.23
2023-03-17T21:46:52.396Z,134.90
2023-03-17T21:49:19.595Z,134.20
2023-03-17T21:51:46.864Z,127.47
2023-03-17T21:54:14.257Z,143.50
2023-03-17T21:56:41.553Z,145.60
2023-03-17T21:59:11.121Z,137.03
2023-03-17T22:01:41.826Z,134.10
2023-03-17T22:04:09.229Z,145.03
2023-03-17T22:06:36.384Z,144.77
2023-03-17T22:09:04.412Z,149.13
2023-03-17T22:11:31.560Z,144.07
2023-03-17T22:13:58.920Z,119.93
2023-03-17T22:16:26.112Z,96.00
2023-03-17T22:18:53.395Z,101.07
2023-03-17T22:21:21.511Z,100.40
2023-03-17T22:23:48.720Z,90.77
2023-03-17T22:26:16.880Z,89.53
2023-03-17T22:28:44.751Z,86.87
2023-03-17T22:31:16.548Z,98.30
2023-03-17T22:33:44.116Z,94.77
2023-03-17T22:36:11.472Z,87.40
2023-03-17T22:38:38.730Z,87.33
2023-03-17T22:41:07.861Z,91.67
2023-03-17T22:43:35.462Z,95.60
2023-03-17T22:46:02.678Z,99.40
2023-03-17T22:48:32.208Z,94.17
2023-03-17T22:51:18.381Z,91.93
2023-03-17T22:53:45.543Z,98.27
2023-03-17T22:56:12.968Z,113.83
2023-03-17T22:58:40.474Z,141.67
2023-03-17T23:01:07.729Z,121.57
2023-03-17T23:03:35.055Z,107.33
2023-03-17T23:06:03.464Z,103.07
2023-03-17T23:08:31.557Z,111.50
2023-03-17T23:11:00.493Z,108.00
2023-03-17T23:13:27.818Z,147.60
2023-03-17T23:15:54.940Z,326.73
2023-03-17T23:18:22.407Z,173.30
2023-03-17T23:20:49.556Z,215.03
2023-03-17T23:23:16.731Z,181.03
2023-03-17T23:25:44.139Z,169.87
2023-03-17T23:28:11.418Z,108.80
2023-03-17T23:30:38.595Z,116.93
2023-03-17T23:33:06.125Z,106.47
2023-03-17T23:35:33.478Z,88.27
2023-03-17T23:38:01.194Z,88.10
2023-03-17T23:40:28.785Z,79.97
2023-03-17T23:42:56.097Z,78.63
2023-03-17T23:45:23.315Z,76.00
2023-03-17T23:47:51.542Z,77.63
2023-03-17T23:50:18.864Z,78.40
2023-03-17T23:52:47.170Z,85.73
2023-03-17T23:55:14.512Z,80.77
2023-03-17T23:57:41.989Z,78.67
